Time;durP1;ratioP1;P1;durP2;ratioP2;P2;SDS_P1;SDS_P2;PMS_P1;PMS_P2;Temp;Humidity;BMP_temperature;BMP_pressure;BME280_temperature;BME280_humidity;BME280_pressure;Samples;Min_cycle;Max_cycle;Signal;HPM_P1;HPM_P2
2022/01/28 00:01:42;;;;;;;62.27;29.77;;;;;;;-0.24;100.00;99371.73;1721973;83;21648;-72
2022/01/28 00:06:52;;;;;;;57.90;25.90;;;;;;;-0.26;100.00;99374.77;1689799;80;21128;-73
2022/01/28 00:09:19;;;;;;;70.12;30.00;;;;;;;-0.26;100.00;99363.11;1629185;86;21091;-74
2022/01/28 00:11:45;;;;;;;64.40;27.77;;;;;;;-0.27;100.00;99351.06;1643972;86;21123;-71
2022/01/28 00:14:25;;;;;;;69.58;29.20;;;;;;;-0.27;100.00;99354.09;1630617;87;21153;-73
2022/01/28 00:38:44;;;;;;;64.55;27.62;;;;;;;-0.23;100.00;99326.89;1645917;87;21132;-73
2022/01/28 00:41:09;;;;;;;59.30;26.27;;;;;;;-0.22;100.00;99326.01;1645585;87;21117;-70
2022/01/28 00:43:35;;;;;;;60.95;27.05;;;;;;;-0.19;100.00;99316.51;1645878;87;21064;-71
2022/01/28 00:46:03;;;;;;;59.90;27.85;;;;;;;-0.19;100.00;99312.63;1642854;87;22278;-71
2022/01/28 00:48:31;;;;;;;57.60;26.97;;;;;;;-0.19;100.00;99306.16;1634153;87;21039;-71
2022/01/28 00:50:57;;;;;;;59.45;27.20;;;;;;;-0.17;100.00;99301.84;1634124;87;21090;-71
2022/01/28 00:53:24;;;;;;;61.10;26.82;;;;;;;-0.16;100.00;99303.54;1634805;87;22145;-71
2022/01/28 00:55:50;;;;;;;57.23;25.72;;;;;;;-0.15;100.00;99298.80;1634322;87;21134;-71
2022/01/28 00:58:17;;;;;;;50.98;25.37;;;;;;;-0.17;100.00;99290.19;1634654;87;21143;-71
2022/01/28 01:00:43;;;;;;;53.58;25.40;;;;;;;-0.18;100.00;99285.86;1633543;87;21574;-71
2022/01/28 01:03:09;;;;;;;50.52;24.55;;;;;;;-0.20;100.00;99281.16;1633999;87;21106;-71
2022/01/28 01:05:41;;;;;;;52.27;26.05;;;;;;;-0.22;100.00;99275.55;1636107;87;21046;-71
2022/01/28 01:08:07;;;;;;;56.85;26.68;;;;;;;-0.23;100.00;99268.67;1679762;83;21081;-72
2022/01/28 01:10:35;;;;;;;55.75;25.52;;;;;;;-0.22;100.00;99263.91;1688374;84;21168;-71
2022/01/28 01:13:03;;;;;;;54.13;25.62;;;;;;;-0.21;100.00;99259.58;1677746;84;21101;-71
2022/01/28 01:15:35;;;;;;;53.38;23.20;;;;;;;-0.20;100.00;99256.58;1671987;85;21049;-71
2022/01/28 01:18:05;;;;;;;52.00;23.07;;;;;;;-0.21;100.00;99251.81;1664891;84;21156;-71
2022/01/28 01:25:29;;;;;;;52.78;24.77;;;;;;;-0.14;100.00;99242.28;1684865;85;21070;-71
2022/01/28 01:27:58;;;;;;;53.83;24.43;;;;;;;-0.16;100.00;99229.38;1684836;85;21355;-72
2022/01/28 01:30:27;;;;;;;44.77;20.75;;;;;;;-0.17;100.00;99221.61;1680782;85;21074;-71
2022/01/28 01:32:53;;;;;;;49.98;24.80;;;;;;;-0.18;100.00;99222.47;1687890;84;21090;-71
2022/01/28 01:35:20;;;;;;;48.58;23.12;;;;;;;-0.19;100.00;99222.05;1688306;84;21977;-73
2022/01/28 01:37:46;;;;;;;52.13;25.17;;;;;;;-0.20;100.00;99213.88;1658577;84;21104;-71
2022/01/28 01:40:14;;;;;;;55.20;27.15;;;;;;;-0.17;100.00;99206.08;1693967;84;21100;-72
2022/01/28 01:43:06;;;;;;;56.48;26.05;;;;;;;-0.16;100.00;99208.67;1658648;86;21085;-73
2022/01/28 01:53:11;;;;;;;64.82;25.40;;;;;;;-0.21;100.00;99188.42;1683496;84;21096;-71
2022/01/28 01:55:37;;;;;;;59.63;25.60;;;;;;;-0.22;100.00;99189.30;1688783;84;21016;-71
2022/01/28 01:58:04;;;;;;;56.05;27.20;;;;;;;-0.25;100.00;99183.72;1688115;84;21568;-72
2022/01/28 02:00:31;;;;;;;61.90;25.05;;;;;;;-0.25;100.00;99188.89;1683547;84;21889;-73
2022/01/28 02:02:57;;;;;;;54.25;23.85;;;;;;;-0.25;100.00;99185.02;1664407;86;21076;-73
2022/01/28 02:05:24;;;;;;;54.75;24.67;;;;;;;-0.25;100.00;99184.16;1665072;84;21564;-72
2022/01/28 02:07:50;;;;;;;65.75;26.60;;;;;;;-0.26;100.00;99181.98;1664594;84;21580;-71
2022/01/28 02:10:17;;;;;;;59.70;25.97;;;;;;;-0.26;100.00;99183.28;1664928;86;21639;-72
2022/01/28 02:12:49;;;;;;;47.27;19.37;;;;;;;-0.25;100.00;99178.55;1663303;86;21094;-72
2022/01/28 02:15:17;;;;;;;54.35;24.60;;;;;;;-0.32;100.00;99176.89;1665258;86;21077;-72
2022/01/28 02:17:44;;;;;;;56.40;26.27;;;;;;;-0.36;100.00;99177.77;1633879;86;21145;-71
2022/01/28 02:20:24;;;;;;;58.17;26.45;;;;;;;-0.40;100.00;99172.20;1688665;84;21071;-72
2022/01/28 02:22:50;;;;;;;53.60;25.05;;;;;;;-0.42;100.00;99171.34;1687835;84;21550;-72
2022/01/28 02:25:29;;;;;;;59.88;25.60;;;;;;;-0.42;100.00;99175.23;1688539;84;21156;-73
2022/01/28 02:27:58;;;;;;;48.83;22.37;;;;;;;-0.42;100.00;99175.23;1687826;84;20992;-72
2022/01/28 02:30:24;;;;;;;50.35;25.30;;;;;;;-0.44;100.00;99173.08;1659681;84;21023;-72
2022/01/28 02:32:56;;;;;;;54.83;24.32;;;;;;;-0.44;100.00;99174.38;1688081;84;21026;-73
2022/01/28 02:35:19;;;;;;;56.77;26.68;;;;;;;-0.48;100.00;99166.24;1687813;84;21063;-72
2022/01/28 02:37:45;;;;;;;56.70;26.70;;;;;;;-0.46;100.00;99167.06;1688433;84;21125;-73
2022/01/28 02:40:12;;;;;;;57.30;25.88;;;;;;;-0.48;100.00;99157.19;1688414;84;21035;-72
2022/01/28 02:42:57;;;;;;;54.20;23.95;;;;;;;-0.47;100.00;99153.72;1688533;84;21109;-71
2022/01/28 02:45:25;;;;;;;61.42;25.75;;;;;;;-0.50;100.00;99153.31;1686287;84;21118;-72
2022/01/28 02:47:44;;;;;;;55.35;23.05;;;;;;;-0.51;100.00;99153.31;1673202;84;21097;-72
2022/01/28 02:50:11;;;;;;;66.55;27.90;;;;;;;-0.51;100.00;99151.58;1665034;86;21236;-73
2022/01/28 02:52:50;;;;;;;66.97;26.48;;;;;;;-0.51;100.00;99144.26;1664882;86;21660;-73
2022/01/28 02:55:12;;;;;;;;;;;;;;;-0.51;100.00;99145.55;1665497;86;21068;-73
2022/01/28 02:57:43;;;;;;;61.65;25.77;;;;;;;-0.51;100.00;99148.14;1674827;85;21624;-72
2022/01/28 03:00:08;;;;;;;66.67;26.55;;;;;;;-0.52;100.00;99149.88;1674019;85;21112;-71
2022/01/28 03:02:35;;;;;;;58.85;27.00;;;;;;;-0.56;100.00;99136.98;1674835;85;21130;-71
2022/01/28 03:07:47;;;;;;;51.28;24.72;;;;;;;-0.53;100.00;99139.53;1675310;84;21081;-70
2022/01/28 03:10:28;;;;;;;57.25;25.05;;;;;;;-0.53;100.00;99139.13;1677610;85;21129;-71
2022/01/28 03:15:26;;;;;;;57.65;26.42;;;;;;;-0.51;100.00;99139.09;1685372;84;21173;-70
2022/01/28 03:18:09;;;;;;;59.70;26.75;;;;;;;-0.51;100.00;99139.09;1673152;85;21069;-70
2022/01/28 03:22:48;;;;;;;56.65;24.85;;;;;;;-0.47;100.00;99138.20;1671398;85;21092;-71
2022/01/28 03:25:15;;;;;;;59.63;26.85;;;;;;;-0.46;100.00;99126.97;1671859;85;21116;-70
2022/01/28 03:30:10;;;;;;;60.83;25.92;;;;;;;-0.47;100.00;99120.09;1671722;85;21664;-72
2022/01/28 03:32:37;;;;;;;58.55;27.48;;;;;;;-0.46;100.00;99121.80;1671679;85;21076;-72
2022/01/28 03:35:06;;;;;;;62.93;28.00;;;;;;;-0.47;100.00;99122.23;1671713;85;21077;-73
2022/01/28 03:37:33;;;;;;;53.40;26.02;;;;;;;-0.48;100.00;99114.52;1671609;85;21623;-71
2022/01/28 03:40:00;;;;;;;52.03;25.65;;;;;;;-0.52;100.00;99114.95;1671455;85;21171;-72
2022/01/28 03:42:27;;;;;;;48.95;24.50;;;;;;;-0.51;100.00;99113.22;1672186;84;21088;-75
2022/01/28 03:44:54;;;;;;;51.10;24.65;;;;;;;-0.49;100.00;99115.36;1664151;84;21107;-73
2022/01/28 03:47:20;;;;;;;52.05;26.30;;;;;;;-0.49;100.00;99108.90;1661746;86;21176;-69
2022/01/28 03:49:47;;;;;;;46.48;24.70;;;;;;;-0.52;100.00;99103.77;1662292;86;21134;-68
2022/01/28 03:52:14;;;;;;;47.30;22.65;;;;;;;-0.48;100.00;99105.02;1661904;86;21178;-69
2022/01/28 03:54:40;;;;;;;47.10;22.70;;;;;;;-0.48;100.00;99098.55;1662044;86;21101;-70
2022/01/28 03:57:07;;;;;;;45.63;22.35;;;;;;;-0.49;100.00;99098.55;1662002;86;21051;-69
2022/01/28 03:59:35;;;;;;;44.35;21.75;;;;;;;-0.47;100.00;99091.64;1662379;86;21094;-69
2022/01/28 04:02:07;;;;;;;44.70;22.60;;;;;;;-0.47;100.00;99089.05;1666100;85;21084;-69
2022/01/28 04:12:40;;;;;;;45.75;23.57;;;;;;;-0.40;100.00;99089.86;1677648;84;21078;-72
2022/01/28 04:17:48;;;;;;;38.00;21.25;;;;;;;-0.42;100.00;99097.62;1680873;85;21173;-70
2022/01/28 04:20:14;;;;;;;40.30;20.15;;;;;;;-0.41;100.00;99091.59;1681191;84;21107;-71
2022/01/28 04:22:40;;;;;;;37.78;19.02;;;;;;;-0.40;100.00;99090.70;1682217;84;21587;-72
2022/01/28 04:25:08;;;;;;;41.35;19.92;;;;;;;-0.40;100.00;99088.13;1679327;84;21069;-72
2022/01/28 04:27:35;;;;;;;40.33;19.57;;;;;;;-0.39;100.00;99087.27;1680714;84;21114;-72
2022/01/28 04:30:01;;;;;;;34.40;17.87;;;;;;;-0.35;100.00;99093.25;1684342;84;21164;-69
2022/01/28 04:32:29;;;;;;;37.35;18.70;;;;;;;-0.37;100.00;99088.08;1678103;84;21072;-70
2022/01/28 04:34:58;;;;;;;36.98;18.82;;;;;;;-0.34;100.00;99096.28;1682029;84;21562;-70
2022/01/28 04:40:12;;;;;;;36.25;19.30;;;;;;;-0.34;100.00;99098.42;1684085;84;21570;-70
2022/01/28 05:03:52;;;;;;;35.68;18.35;;;;;;;-0.31;100.00;99075.09;1682911;83;21096;-72
2022/01/28 05:24:28;;;;;;;32.08;17.95;;;;;;;-0.22;100.00;99063.36;1671782;84;21137;-65
2022/01/28 05:26:39;;;;;;;38.00;17.45;;;;;;;-0.20;100.00;99063.80;1680157;85;21121;-66
2022/01/28 05:29:04;;;;;;;30.57;17.05;;;;;;;-0.22;100.00;99060.77;1675169;85;21081;-65
2022/01/28 05:31:30;;;;;;;29.95;16.48;;;;;;;-0.24;100.00;99063.81;1688210;85;21081;-65
2022/01/28 05:33:56;;;;;;;32.85;18.42;;;;;;;-0.23;100.00;99063.36;1687825;85;21213;-66
2022/01/28 05:36:23;;;;;;;31.05;16.15;;;;;;;-0.25;100.00;99065.98;1668997;85;21054;-64
2022/01/28 05:38:50;;;;;;;31.02;17.02;;;;;;;-0.24;100.00;99064.25;1666817;85;21069;-65
2022/01/28 05:41:17;;;;;;;31.87;17.12;;;;;;;-0.26;100.00;99065.55;1671711;85;21154;-65
2022/01/28 05:43:43;;;;;;;32.98;16.62;;;;;;;-0.25;100.00;99066.44;1668853;85;21078;-65
2022/01/28 05:46:10;;;;;;;35.35;18.35;;;;;;;-0.28;100.00;99067.30;1652636;85;21216;-67
2022/01/28 05:48:37;;;;;;;31.07;16.70;;;;;;;-0.28;100.00;99064.70;1659097;85;21067;-67
2022/01/28 05:51:04;;;;;;;31.87;17.35;;;;;;;-0.27;100.00;99054.80;1637653;87;21069;-66
2022/01/28 05:53:30;;;;;;;32.93;18.80;;;;;;;-0.24;100.00;99061.22;1672170;84;21041;-65
2022/01/28 05:55:57;;;;;;;33.30;18.32;;;;;;;-0.20;100.00;99066.39;1674626;84;21086;-65
2022/01/28 05:58:25;;;;;;;33.95;17.62;;;;;;;-0.18;100.00;99055.55;1676029;85;21094;-64
2022/01/28 06:00:52;;;;;;;33.20;18.07;;;;;;;-0.16;100.00;99057.28;1672023;85;21147;-66
2022/01/28 06:03:18;;;;;;;39.35;18.57;;;;;;;-0.15;100.00;99062.02;1670853;85;21087;-67
2022/01/28 06:05:47;;;;;;;36.68;18.77;;;;;;;-0.13;100.00;99066.73;1670938;85;21587;-67
2022/01/28 06:08:13;;;;;;;48.10;23.12;;;;;;;-0.11;100.00;99070.17;1638609;86;21119;-66
2022/01/28 06:10:40;;;;;;;43.10;20.92;;;;;;;-0.09;100.00;99072.27;1624907;85;21935;-66
2022/01/28 06:13:09;;;;;;;40.35;20.55;;;;;;;-0.07;100.00;99070.53;1632295;86;21093;-66
2022/01/28 06:15:42;;;;;;;39.63;19.52;;;;;;;-0.04;100.00;99073.11;1622706;87;21129;-65
2022/01/28 06:18:10;;;;;;;36.38;19.50;;;;;;;-0.01;100.00;99069.19;1649359;85;21165;-64
2022/01/28 06:20:37;;;;;;;38.45;20.68;;;;;;;0.00;100.00;99068.33;1649701;85;21117;-64
2022/01/28 06:23:04;;;;;;;36.88;19.25;;;;;;;0.01;100.00;99066.59;1650717;85;21637;-65
2022/01/28 06:25:33;;;;;;;38.80;19.73;;;;;;;0.02;100.00;99063.95;1650753;85;21116;-64
2022/01/28 06:27:59;;;;;;;40.48;19.23;;;;;;;0.04;100.00;99058.77;1649324;85;21108;-66
2022/01/28 06:30:26;;;;;;;34.33;18.20;;;;;;;0.07;100.00;99059.61;1650159;85;21062;-65
2022/01/28 06:32:53;;;;;;;37.15;20.23;;;;;;;0.09;100.00;99060.87;1649434;85;21072;-65
2022/01/28 06:35:20;;;;;;;39.48;19.20;;;;;;;0.12;100.00;99066.03;1649900;85;21158;-66
2022/01/28 06:37:48;;;;;;;38.53;19.42;;;;;;;0.09;100.00;99061.75;1650271;85;21116;-65
2022/01/28 06:40:16;;;;;;;40.60;21.27;;;;;;;0.08;100.00;99063.90;1649728;85;21136;-65
2022/01/28 06:42:42;;;;;;;42.03;21.20;;;;;;;0.04;100.00;99057.03;1649609;85;21089;-66
2022/01/28 06:45:10;;;;;;;42.65;22.27;;;;;;;0.03;100.00;99056.63;1649811;85;21136;-65
2022/01/28 06:47:40;;;;;;;45.65;22.52;;;;;;;0.06;100.00;99059.17;1654035;85;21627;-66
2022/01/28 06:50:10;;;;;;;48.23;23.00;;;;;;;0.04;100.00;99051.86;1649029;85;21160;-65
2022/01/28 06:52:38;;;;;;;41.05;21.87;;;;;;;0.06;100.00;99048.82;1648990;85;21080;-65
2022/01/28 06:55:06;;;;;;;43.90;22.48;;;;;;;0.08;100.00;99048.81;1646475;85;21105;-64
2022/01/28 06:57:33;;;;;;;39.65;21.90;;;;;;;0.08;100.00;99049.66;1649772;86;21393;-64
2022/01/28 06:59:59;;;;;;;40.88;20.52;;;;;;;0.11;100.00;99058.67;1649570;85;21819;-64
2022/01/28 07:02:26;;;;;;;44.90;21.85;;;;;;;0.13;100.00;99058.67;1659145;85;22559;-65
2022/01/28 07:04:52;;;;;;;40.83;21.37;;;;;;;0.14;100.00;99060.40;1662704;85;21056;-65
2022/01/28 07:07:22;;;;;;;39.83;20.27;;;;;;;0.15;100.00;99056.48;1663625;85;21629;-66
2022/01/28 07:09:48;;;;;;;38.78;21.70;;;;;;;0.18;100.00;99069.41;1653771;86;21081;-65
2022/01/28 07:12:15;;;;;;;39.08;20.68;;;;;;;0.22;100.00;99067.62;1663670;86;22063;-65
2022/01/28 07:14:44;;;;;;;43.33;20.95;;;;;;;0.25;100.00;99067.57;1675224;84;21046;-66
2022/01/28 07:17:10;;;;;;;42.17;20.48;;;;;;;0.25;100.00;99069.31;1681489;84;21070;-65
2022/01/28 07:19:38;;;;;;;41.48;22.17;;;;;;;0.28;100.00;99066.70;1685485;84;21709;-65
2022/01/28 07:22:05;;;;;;;45.58;22.00;;;;;;;0.30;100.00;99055.45;1676593;85;21699;-66
2022/01/28 07:24:32;;;;;;;49.53;24.50;;;;;;;0.33;100.00;99061.02;1646402;85;21127;-65
2022/01/28 07:26:58;;;;;;;47.03;23.27;;;;;;;0.35;100.00;99068.34;1676190;84;21595;-65
2022/01/28 07:29:28;;;;;;;61.90;27.25;;;;;;;0.38;100.00;99062.66;1654126;86;21085;-65
2022/01/28 07:31:53;;;;;;;49.88;24.25;;;;;;;0.41;100.00;99069.12;1670141;84;21113;-66
2022/01/28 07:34:19;;;;;;;44.33;24.12;;;;;;;0.44;100.00;99068.22;1641030;86;21137;-65
2022/01/28 07:36:46;;;;;;;46.48;23.92;;;;;;;0.46;100.00;99064.30;1662389;85;21076;-65
2022/01/28 07:39:12;;;;;;;55.63;26.10;;;;;;;0.49;100.00;99069.45;1634711;86;21395;-66
2022/01/28 07:41:39;;;;;;;43.98;21.93;;;;;;;0.51;100.00;99062.08;1675990;84;21117;-68
2022/01/28 07:44:06;;;;;;;46.15;23.10;;;;;;;0.51;100.00;99054.75;1664526;86;21068;-66
2022/01/28 07:46:33;;;;;;;43.92;25.15;;;;;;;0.50;100.00;99049.98;1668432;85;21133;-65
2022/01/28 07:49:00;;;;;;;40.75;23.00;;;;;;;0.54;100.00;99056.84;1643830;86;21342;-63
2022/01/28 07:51:27;;;;;;;40.00;22.17;;;;;;;0.56;100.00;99049.91;1647757;86;21592;-65
2022/01/28 07:53:53;;;;;;;39.55;20.97;;;;;;;0.61;100.00;99050.70;1644437;86;21042;-65
2022/01/28 07:56:22;;;;;;;42.08;21.87;;;;;;;0.65;100.00;99052.82;1680987;84;21077;-65
2022/01/28 07:58:48;;;;;;;42.48;21.68;;;;;;;0.65;100.00;99049.38;1656285;86;21026;-65
2022/01/28 08:01:14;;;;;;;46.37;22.55;;;;;;;0.64;100.00;99048.50;1662782;85;22196;-66
2022/01/28 08:03:41;;;;;;;46.10;23.85;;;;;;;0.65;100.00;99051.97;1677036;85;21102;-65
2022/01/28 08:06:07;;;;;;;47.98;25.05;;;;;;;0.66;100.00;99053.67;1678851;85;21513;-65
2022/01/28 08:08:34;;;;;;;52.45;25.02;;;;;;;0.70;100.00;99048.87;1676367;85;21081;-66
2022/01/28 08:11:01;;;;;;;51.20;25.75;;;;;;;0.68;100.00;99045.44;1680652;85;21080;-65
2022/01/28 08:13:27;;;;;;;50.00;25.20;;;;;;;0.69;100.00;99042.83;1681932;85;21508;-64
2022/01/28 08:15:54;;;;;;;48.98;25.43;;;;;;;0.70;100.00;99039.80;1682179;85;21101;-65
2022/01/28 08:18:21;;;;;;;58.50;26.87;;;;;;;0.75;100.00;99044.47;1681767;85;21089;-66
2022/01/28 08:20:48;;;;;;;54.15;26.60;;;;;;;0.76;100.00;99038.39;1680544;85;21074;-65
2022/01/28 08:23:15;;;;;;;51.35;25.08;;;;;;;0.77;100.00;99034.49;1681342;85;21037;-65
2022/01/28 08:25:41;;;;;;;62.10;28.62;;;;;;;0.77;100.00;99038.83;1678989;85;21168;-65
2022/01/28 08:28:08;;;;;;;61.15;27.95;;;;;;;0.76;100.00;99035.38;1677367;84;21070;-65
2022/01/28 08:30:38;;;;;;;61.88;27.45;;;;;;;0.79;100.00;99034.48;1681814;84;21109;-65
2022/01/28 08:33:03;;;;;;;57.78;27.45;;;;;;;0.80;100.00;99032.29;1694319;83;21430;-65
2022/01/28 08:35:32;;;;;;;57.90;23.00;;;;;;;0.82;100.00;99030.09;1679150;85;21588;-65
2022/01/28 08:37:58;;;;;;;60.12;27.62;;;;;;;0.82;100.00;99032.67;1686478;84;22142;-65
2022/01/28 08:40:27;;;;;;;64.27;29.35;;;;;;;0.83;100.00;99027.08;1685674;84;21142;-66
2022/01/28 08:42:53;;;;;;;54.53;25.85;;;;;;;0.87;100.00;99031.76;1692742;84;21076;-65
2022/01/28 08:45:20;;;;;;;61.18;26.68;;;;;;;0.92;100.00;99023.47;1674489;84;21602;-65
2022/01/28 08:47:47;;;;;;;65.67;25.30;;;;;;;0.92;100.00;99024.34;1673026;84;21092;-65
2022/01/28 08:50:14;;;;;;;54.60;25.15;;;;;;;0.95;100.00;99024.73;1683796;84;21652;-66
2022/01/28 08:52:41;;;;;;;57.33;24.92;;;;;;;0.97;100.00;99030.30;1670847;85;21093;-66
2022/01/28 08:55:07;;;;;;;63.15;25.08;;;;;;;1.00;100.00;99035.44;1671662;85;21120;-66
2022/01/28 08:57:34;;;;;;;55.00;25.30;;;;;;;1.01;100.00;99025.50;1676983;85;22147;-66
2022/01/28 09:00:07;;;;;;;48.15;23.62;;;;;;;1.04;100.00;99028.48;1688723;84;21090;-66
2022/01/28 09:02:33;;;;;;;;;;;;;;;1.03;100.00;99026.75;1686706;83;21097;-66
2022/01/28 09:05:03;;;;;;;52.98;25.05;;;;;;;1.07;100.00;99024.97;1678818;84;20244;-64
2022/01/28 09:07:30;;;;;;;51.40;24.92;;;;;;;1.08;100.00;99024.08;1687283;84;21059;-65
2022/01/28 09:10:04;;;;;;;43.33;22.48;;;;;;;1.05;100.00;99022.39;1686933;84;21134;-66
2022/01/28 09:12:38;;;;;;;53.48;26.60;;;;;;;1.04;100.00;99021.55;1675533;85;21668;-65
2022/01/28 09:14:57;;;;;;;39.27;20.57;;;;;;;1.04;100.00;99018.95;1676078;85;21253;-65
2022/01/28 09:17:26;;;;;;;37.88;20.35;;;;;;;1.04;100.00;99018.95;1651404;86;21104;-64
2022/01/28 09:19:55;;;;;;;;;;;;;;;1.05;100.00;99018.06;1678800;84;21144;-65
2022/01/28 09:22:22;;;;;;;39.60;17.80;;;;;;;1.04;100.00;99018.95;1684192;84;20447;-65
2022/01/28 09:24:48;;;;;;;40.98;20.72;;;;;;;1.01;100.00;99009.94;1670305;85;21050;-66
2022/01/28 09:27:15;;;;;;;35.43;20.08;;;;;;;1.00;100.00;99008.66;1665315;85;21048;-65
2022/01/28 09:29:41;;;;;;;36.85;19.75;;;;;;;1.02;100.00;99007.75;1669612;85;21060;-65
2022/01/28 09:32:08;;;;;;;37.53;17.65;;;;;;;1.02;100.00;98997.38;1673960;85;21057;-65
2022/01/28 09:34:35;;;;;;;33.10;17.75;;;;;;;1.01;100.00;99003.46;1675739;85;21100;-66
2022/01/28 09:37:02;;;;;;;34.73;17.35;;;;;;;0.99;100.00;98998.73;1663438;85;21060;-66
2022/01/28 09:39:31;;;;;;;35.30;18.37;;;;;;;0.96;100.00;98994.87;1667339;84;21110;-65
2022/01/28 09:42:02;;;;;;;35.98;19.20;;;;;;;1.01;100.00;98998.27;1667852;84;21552;-66
2022/01/28 09:44:25;;;;;;;41.73;21.62;;;;;;;1.07;100.00;98989.52;1655056;86;21522;-65
2022/01/28 09:46:52;;;;;;;38.92;22.22;;;;;;;1.13;100.00;98985.95;1673762;84;21024;-65
2022/01/28 09:49:18;;;;;;;40.23;21.10;;;;;;;1.23;100.00;98982.34;1656872;86;21072;-65
2022/01/28 09:51:46;;;;;;;41.30;21.35;;;;;;;1.40;100.00;98979.02;1657035;86;21183;-65
2022/01/28 09:54:12;;;;;;;36.90;19.02;;;;;;;1.53;100.00;98973.59;1655365;86;21084;-65
2022/01/28 09:56:40;;;;;;;33.63;18.15;;;;;;;1.77;100.00;98977.44;1671088;85;21100;-68
2022/01/28 09:59:06;;;;;;;36.17;18.23;;;;;;;1.94;100.00;98970.63;1675948;84;21081;-65
2022/01/28 10:01:39;;;;;;;37.75;18.65;;;;;;;2.11;100.00;98967.22;1686641;84;21108;-65
2022/01/28 10:04:07;;;;;;;33.28;17.65;;;;;;;2.19;100.00;98967.07;1687231;84;21690;-65
2022/01/28 10:06:35;;;;;;;32.85;17.07;;;;;;;2.21;100.00;98954.88;1658064;84;21365;-66
2022/01/28 10:09:08;;;;;;;33.80;17.80;;;;;;;2.21;100.00;98954.88;1684707;84;21131;-69
2022/01/28 10:11:41;;;;;;;33.42;17.15;;;;;;;2.30;100.00;98951.66;1680910;84;21591;-65
2022/01/28 10:14:12;;;;;;;34.25;18.35;;;;;;;2.35;100.00;98951.55;1677310;85;21066;-65
2022/01/28 10:16:36;;;;;;;40.30;18.92;;;;;;;2.42;100.00;98947.92;1667902;86;21521;-65
2022/01/28 10:19:07;;;;;;;34.88;18.48;;;;;;;2.51;100.00;98944.27;1667630;85;21135;-66
2022/01/28 10:21:39;;;;;;;35.05;18.75;;;;;;;2.53;100.00;98938.55;1668387;86;21084;-65
2022/01/28 10:24:17;;;;;;;33.10;18.10;;;;;;;2.51;100.00;98937.31;1684256;85;21109;-65
2022/01/28 10:27:09;;;;;;;36.63;19.45;;;;;;;2.36;100.00;98936.36;1622547;87;21174;-66
2022/01/28 10:29:40;;;;;;;37.95;18.73;;;;;;;2.23;100.00;98931.91;1706438;84;21982;-65
2022/01/28 10:32:11;;;;;;;34.90;18.60;;;;;;;2.17;100.00;98928.13;1684239;85;21117;-66
2022/01/28 10:34:49;;;;;;;36.37;17.77;;;;;;;2.14;100.00;98923.44;1715967;83;21061;-65
2022/01/28 10:37:19;;;;;;;38.40;18.80;;;;;;;2.07;100.00;98914.92;1702911;84;21180;-65
2022/01/28 10:40:00;;;;;;;38.73;19.77;;;;;;;2.02;100.00;98907.23;1744708;81;21268;-66
2022/01/28 10:42:52;;;;;;;43.52;18.62;;;;;;;2.02;100.00;98907.23;1744689;81;21500;-64
2022/01/28 10:45:20;;;;;;;38.80;19.30;;;;;;;2.02;100.00;98903.78;1737304;81;21056;-64
2022/01/28 10:47:51;;;;;;;42.55;20.90;;;;;;;1.96;100.00;98903.49;1746476;81;21557;-65
2022/01/28 10:50:34;;;;;;;48.92;23.12;;;;;;;1.94;100.00;98903.97;1750961;81;21091;-65
2022/01/28 10:53:13;;;;;;;39.80;19.85;;;;;;;1.93;100.00;98889.26;1739277;81;21613;-65
2022/01/28 10:55:49;;;;;;;45.05;20.90;;;;;;;1.93;100.00;98889.26;1751630;81;21825;-66
2022/01/28 10:58:22;;;;;;;39.40;21.15;;;;;;;1.95;100.00;98888.78;1726841;81;21177;-65
2022/01/28 11:00:57;;;;;;;48.25;21.00;;;;;;;2.02;100.00;98885.16;1709963;83;21507;-63
2022/01/28 11:03:29;;;;;;;46.83;23.42;;;;;;;2.04;100.00;98885.14;1719116;82;21108;-65
2022/01/28 11:05:58;;;;;;;44.90;20.12;;;;;;;2.04;100.00;98885.14;1653300;85;22855;-66
2022/01/28 11:08:25;;;;;;;49.67;23.80;;;;;;;1.97;100.00;98882.27;1724627;82;21137;-65
2022/01/28 11:10:52;;;;;;;44.45;22.13;;;;;;;1.95;100.00;98881.45;1709713;82;21179;-66
2022/01/28 11:13:20;;;;;;;45.23;22.25;;;;;;;1.96;100.00;98871.48;1689976;84;21116;-65
2022/01/28 11:15:46;;;;;;;44.90;23.67;;;;;;;2.00;100.00;98867.91;1734149;82;21064;-65
2022/01/28 11:18:14;;;;;;;45.78;21.30;;;;;;;2.02;100.00;98872.63;1691700;84;21060;-65
2022/01/28 11:20:49;;;;;;;43.30;19.60;;;;;;;2.10;100.00;98871.57;1702418;84;21119;-65
2022/01/28 11:23:29;;;;;;;42.20;21.05;;;;;;;2.24;100.00;98860.02;1695884;84;22016;-69
2022/01/28 11:26:24;;;;;;;40.70;20.17;;;;;;;2.24;100.00;98860.02;1717659;82;21127;-68
2022/01/28 11:28:55;;;;;;;34.27;17.82;;;;;;;2.63;100.00;98847.79;1710961;81;21084;-68
2022/01/28 11:31:47;;;;;;;34.73;17.92;;;;;;;2.63;100.00;98847.79;1774036;79;21489;-68
2022/01/28 11:34:26;;;;;;;41.13;21.97;;;;;;;2.98;100.00;98830.86;1780942;79;21120;-69
2022/01/28 11:36:55;;;;;;;37.17;20.05;;;;;;;3.21;100.00;98836.73;1793316;80;21040;-68
2022/01/28 11:39:30;;;;;;;37.25;19.40;;;;;;;3.25;100.00;98832.70;1789869;79;21146;-68
2022/01/28 11:42:10;;;;;;;40.33;18.92;;;;;;;3.23;100.00;98832.35;1752258;80;21610;-69
2022/01/28 11:44:54;;;;;;;37.45;18.87;;;;;;;3.21;100.00;98836.73;1762140;81;21536;-68
2022/01/28 11:47:29;;;;;;;34.10;17.20;;;;;;;3.18;100.00;98834.23;1759501;80;21276;-67
2022/01/28 11:50:01;;;;;;;34.88;16.62;;;;;;;3.07;100.00;98840.56;1774710;80;21120;-68
2022/01/28 11:52:32;;;;;;;33.90;17.77;;;;;;;3.01;100.00;98844.63;1750824;79;21088;-65
2022/01/28 11:55:21;;;;;;;;;;;;;;;2.99;100.00;98839.94;1751374;80;21845;-65
2022/01/28 11:58:08;;;;;;;43.90;20.65;;;;;;;3.00;100.00;98831.23;1746068;81;20478;-64
2022/01/28 12:00:37;;;;;;;39.75;18.95;;;;;;;2.94;100.00;98835.28;1747141;79;21229;-66
2022/01/28 12:05:57;;;;;;;40.10;18.33;;;;;;;2.72;100.00;98830.66;1803603;78;22599;-69
2022/01/28 12:08:31;;;;;;;27.20;14.00;;;;;;;2.59;100.00;98833.16;1762326;80;20959;-69
2022/01/28 12:11:02;;;;;;;33.85;17.82;;;;;;;2.47;100.00;98847.77;1773779;80;21073;-67
2022/01/28 12:13:53;;;;;;;37.13;17.65;;;;;;;2.46;100.00;98834.35;1765652;80;21580;-67
2022/01/28 12:16:30;;;;;;;37.70;18.85;;;;;;;2.47;100.00;98834.77;1758183;80;20961;-68
2022/01/28 12:18:59;;;;;;;33.30;17.05;;;;;;;2.43;100.00;98839.63;1762352;80;21065;-68
2022/01/28 12:21:31;;;;;;;35.00;18.20;;;;;;;2.41;100.00;98832.32;1766009;80;21019;-68
2022/01/28 12:24:25;;;;;;;28.98;15.98;;;;;;;2.38;100.00;98836.30;1760211;80;21105;-68
2022/01/28 12:27:10;;;;;;;39.95;18.85;;;;;;;2.38;100.00;98833.70;1771036;80;21017;-67
2022/01/28 12:29:46;;;;;;;24.40;12.37;;;;;;;2.39;100.00;98843.19;1751494;80;21069;-68
2022/01/28 12:32:13;;;;;;;35.73;14.80;;;;;;;2.39;100.00;98832.80;1769139;80;21547;-65
2022/01/28 12:34:46;;;;;;;32.08;16.25;;;;;;;2.39;100.00;98832.80;1742961;80;21108;-68
2022/01/28 12:37:13;;;;;;;31.55;16.52;;;;;;;2.41;100.00;98832.32;1774616;80;21137;-67
2022/01/28 12:39:50;;;;;;;23.85;12.95;;;;;;;2.43;100.00;98829.23;1760938;80;21561;-69
2022/01/28 12:42:23;;;;;;;25.23;15.70;;;;;;;2.41;100.00;98833.62;1713607;83;21057;-69
2022/01/28 12:44:40;;;;;;;26.07;13.72;;;;;;;2.39;100.00;98828.90;1711450;83;21030;-69
2022/01/28 12:47:09;;;;;;;25.52;13.78;;;;;;;2.39;100.00;98822.41;1708332;83;21074;-64
2022/01/28 12:49:38;;;;;;;22.17;13.00;;;;;;;2.40;100.00;98826.73;1719399;82;21884;-64
2022/01/28 12:52:08;;;;;;;21.35;11.08;;;;;;;2.40;100.00;98828.03;1714806;83;21081;-66
2022/01/28 12:54:43;;;;;;;20.80;11.93;;;;;;;2.41;100.00;98829.72;1712458;83;21086;-65
2022/01/28 12:57:15;;;;;;;22.27;12.90;;;;;;;2.41;100.00;98820.63;1710876;83;21093;-65
2022/01/28 12:59:45;;;;;;;20.17;11.08;;;;;;;2.42;100.00;98827.55;1694404;82;21109;-65
2022/01/28 13:02:13;;;;;;;23.95;12.20;;;;;;;2.42;100.00;98827.55;1680033;84;22165;-65
2022/01/28 13:10:24;;;;;;;35.78;17.87;;;;;;;2.46;100.00;98799.27;1726400;82;21697;-64
2022/01/28 13:12:50;;;;;;;46.58;25.35;;;;;;;2.46;100.00;98798.84;1731882;82;21074;-69